Time;durP1;ratioP1;P1;durP2;ratioP2;P2;SDS_P1;SDS_P2;PMS_P1;PMS_P2;Temp;Humidity;BMP_temperature;BMP_pressure;BME280_temperature;BME280_humidity;BME280_pressure;Samples;Min_cycle;Max_cycle;Signal;HPM_P1;HPM_P2
2023/09/28 00:02:53;;;;;;;1999.90;999.90;;;20.50;99.90;;;;;;5027116;28;20043;-76
2023/09/28 00:05:20;;;;;;;1999.90;999.90;;;20.60;99.90;;;;;;5026502;28;20837;-76
2023/09/28 00:07:46;;;;;;;1999.90;999.90;;;20.50;99.90;;;;;;5025457;28;20446;-69
2023/09/28 00:10:13;;;;;;;1999.90;999.90;;;20.60;99.90;;;;;;5026369;28;20040;-76
2023/09/28 00:12:40;;;;;;;1999.90;999.90;;;20.50;99.90;;;;;;5026483;28;20029;-70
2023/09/28 00:15:07;;;;;;;1999.90;999.90;;;20.50;99.90;;;;;;5026459;28;20060;-69
2023/09/28 00:17:33;;;;;;;1999.90;999.90;;;20.60;99.90;;;;;;5026065;28;20060;-76
2023/09/28 00:19:59;;;;;;;1999.90;999.90;;;20.60;99.90;;;;;;5026915;28;20528;-77
2023/09/28 00:22:25;;;;;;;1999.90;999.90;;;20.60;99.90;;;;;;5026802;28;20353;-77
2023/09/28 00:24:50;;;;;;;1999.90;999.90;;;20.60;99.90;;;;;;5026125;28;20709;-76
2023/09/28 00:27:16;;;;;;;1999.90;999.90;;;20.60;99.90;;;;;;5026885;28;20025;-69
2023/09/28 00:29:41;;;;;;;1999.90;999.90;;;20.50;99.90;;;;;;5012626;28;20548;-76
2023/09/28 00:32:08;;;;;;;1999.90;999.90;;;20.50;99.90;;;;;;5006065;28;20111;-76
2023/09/28 00:34:33;;;;;;;1999.90;999.90;;;20.60;99.90;;;;;;5006926;28;20029;-76
2023/09/28 00:36:59;;;;;;;1999.90;999.90;;;20.50;99.90;;;;;;5025255;28;20106;-76
2023/09/28 00:39:26;;;;;;;1999.90;999.90;;;20.50;99.90;;;;;;5025555;28;20111;-77
2023/09/28 00:41:52;;;;;;;1999.90;999.90;;;20.60;99.90;;;;;;5026345;28;20102;-75
2023/09/28 00:44:17;;;;;;;1999.90;999.90;;;20.50;99.90;;;;;;5026535;28;20040;-76
2023/09/28 00:46:44;;;;;;;1999.90;999.90;;;20.40;99.90;;;;;;5026650;28;20036;-77
2023/09/28 00:49:14;;;;;;;1999.90;999.90;;;20.30;99.90;;;;;;5025272;28;20450;-77
2023/09/28 00:51:40;;;;;;;1999.90;999.90;;;20.20;99.90;;;;;;5026318;28;20017;-70
2023/09/28 00:54:06;;;;;;;1999.90;999.90;;;20.30;99.90;;;;;;5026379;28;20139;-69
2023/09/28 00:56:32;;;;;;;1999.90;999.90;;;20.20;99.90;;;;;;5026181;28;20552;-77
2023/09/28 00:58:59;;;;;;;1999.90;999.90;;;20.10;99.90;;;;;;5025714;28;20037;-77
2023/09/28 01:01:29;;;;;;;1999.90;999.90;;;20.10;99.90;;;;;;5025241;28;20671;-77
2023/09/28 01:03:56;;;;;;;1999.90;999.90;;;20.10;99.90;;;;;;5026049;28;20517;-69
2023/09/28 01:06:24;;;;;;;1999.90;999.90;;;20.00;99.90;;;;;;5025912;28;20021;-69
2023/09/28 01:08:50;;;;;;;1999.90;999.90;;;19.90;99.90;;;;;;5026049;28;20411;-77
2023/09/28 01:11:17;;;;;;;1999.90;999.90;;;19.80;99.90;;;;;;5025499;28;20586;-76
2023/09/28 01:13:44;;;;;;;1999.90;999.90;;;19.80;99.90;;;;;;5025901;28;20559;-69
2023/09/28 01:16:10;;;;;;;1999.90;999.90;;;19.80;99.90;;;;;;5025210;28;20048;-76
2023/09/28 01:18:36;;;;;;;1999.90;999.90;;;19.80;99.90;;;;;;5026286;28;20037;-69
2023/09/28 01:21:02;;;;;;;1999.90;999.90;;;19.70;99.90;;;;;;5029094;28;20033;-69
2023/09/28 01:23:28;;;;;;;1999.90;999.90;;;19.70;99.90;;;;;;5029675;28;20757;-76
2023/09/28 01:25:54;;;;;;;1999.90;999.90;;;19.70;99.90;;;;;;5030157;28;20127;-77
2023/09/28 01:28:21;;;;;;;1999.90;999.90;;;19.60;99.90;;;;;;5027322;28;20455;-77
2023/09/28 01:30:47;;;;;;;1999.90;999.90;;;19.60;99.90;;;;;;5010113;28;20102;-69
2023/09/28 01:33:13;;;;;;;1999.90;999.90;;;19.60;99.90;;;;;;5009547;28;20626;-69
2023/09/28 01:35:38;;;;;;;1999.90;999.90;;;19.60;99.90;;;;;;5009244;28;20038;-77
2023/09/28 01:38:18;;;;;;;1999.90;999.90;;;19.50;99.90;;;;;;5009598;28;20045;-77
2023/09/28 01:40:46;;;;;;;1999.90;999.90;;;19.50;99.90;;;;;;5009653;28;20026;-76
2023/09/28 01:43:12;;;;;;;1999.90;999.90;;;19.50;99.90;;;;;;5009937;28;20083;-77
2023/09/28 01:45:37;;;;;;;1999.90;999.90;;;19.60;99.90;;;;;;5009903;28;20025;-69
2023/09/28 01:48:06;;;;;;;1999.90;999.90;;;19.60;99.90;;;;;;5019352;28;20028;-77
2023/09/28 01:50:32;;;;;;;1999.90;999.90;;;19.60;99.90;;;;;;5029600;28;20029;-76
2023/09/28 01:52:58;;;;;;;1999.90;999.90;;;19.60;99.90;;;;;;5028846;28;20033;-69
2023/09/28 01:55:24;;;;;;;1999.90;999.90;;;19.60;99.90;;;;;;5029657;28;20032;-76
2023/09/28 01:57:50;;;;;;;1999.90;999.90;;;19.60;99.90;;;;;;5029425;28;20385;-69
2023/09/28 02:00:20;;;;;;;1999.90;999.90;;;19.60;99.90;;;;;;5028804;28;20565;-76
2023/09/28 02:02:47;;;;;;;1999.90;999.90;;;19.60;99.90;;;;;;5029157;28;20021;-76
2023/09/28 02:05:17;;;;;;;1999.90;999.90;;;19.50;99.90;;;;;;5028980;28;20128;-69
2023/09/28 02:07:44;;;;;;;1999.90;999.90;;;19.50;99.90;;;;;;5027651;28;20074;-77
2023/09/28 02:10:10;;;;;;;1999.90;999.90;;;19.50;99.90;;;;;;5028893;28;20025;-77
2023/09/28 02:12:39;;;;;;;1999.90;999.90;;;19.40;99.90;;;;;;5028425;28;20068;-69
2023/09/28 02:15:14;;;;;;;1999.90;999.90;;;19.30;99.90;;;;;;5028464;28;20052;-69
2023/09/28 02:17:40;;;;;;;1999.90;999.90;;;19.20;99.90;;;;;;5029040;28;20527;-76
2023/09/28 02:20:09;;;;;;;1999.90;999.90;;;19.20;99.90;;;;;;5028774;28;20440;-77
2023/09/28 02:22:41;;;;;;;1999.90;999.90;;;19.20;99.90;;;;;;5028979;28;20143;-69
2023/09/28 02:25:07;;;;;;;1999.90;999.90;;;19.10;99.90;;;;;;5028041;28;20123;-69
2023/09/28 02:27:32;;;;;;;1999.90;999.90;;;19.20;99.90;;;;;;5028902;28;20047;-76
2023/09/28 02:29:59;;;;;;;1999.90;999.90;;;19.20;99.90;;;;;;5012230;28;20032;-77
2023/09/28 02:32:24;;;;;;;1999.90;999.90;;;19.20;99.90;;;;;;5008890;28;20530;-76
2023/09/28 02:34:50;;;;;;;1999.90;999.90;;;19.20;99.90;;;;;;5009021;28;20037;-69
2023/09/28 02:37:16;;;;;;;1999.90;999.90;;;19.20;99.90;;;;;;5008098;28;20487;-69
2023/09/28 02:39:43;;;;;;;1999.90;999.90;;;19.20;99.90;;;;;;5008137;28;20045;-76
2023/09/28 02:42:08;;;;;;;1999.90;999.90;;;19.20;99.90;;;;;;5006191;28;20442;-76
2023/09/28 02:44:34;;;;;;;1999.90;999.90;;;19.20;99.90;;;;;;5008255;28;20025;-70
2023/09/28 02:47:05;;;;;;;1999.90;999.90;;;19.20;99.90;;;;;;5010031;28;20076;-75
2023/09/28 02:49:32;;;;;;;1999.90;999.90;;;19.20;99.90;;;;;;5028277;28;20045;-69
2023/09/28 02:51:59;;;;;;;1999.90;999.90;;;19.20;99.90;;;;;;5028370;28;20099;-76
2023/09/28 02:54:25;;;;;;;1999.90;999.90;;;19.20;99.90;;;;;;5028148;28;20039;-77
2023/09/28 02:56:51;;;;;;;1999.90;999.90;;;19.20;99.90;;;;;;5028294;28;20040;-76
2023/09/28 02:59:17;;;;;;;1999.90;999.90;;;19.10;99.90;;;;;;5027635;28;20067;-76
2023/09/28 03:01:43;;;;;;;1999.90;999.90;;;19.10;99.90;;;;;;5027538;28;20102;-77
2023/09/28 03:04:10;;;;;;;1999.90;999.90;;;19.10;99.90;;;;;;5027952;28;20423;-69
2023/09/28 03:06:37;;;;;;;1999.90;999.90;;;19.10;99.90;;;;;;5025824;28;20025;-76
2023/09/28 03:09:03;;;;;;;1999.90;999.90;;;19.10;99.90;;;;;;5027703;28;20054;-76
2023/09/28 03:11:29;;;;;;;1999.90;999.90;;;19.10;99.90;;;;;;5027518;28;20139;-76
2023/09/28 03:13:55;;;;;;;1999.90;999.90;;;19.10;99.90;;;;;;5028053;28;20063;-69
2023/09/28 03:16:21;;;;;;;1999.90;999.90;;;19.10;99.90;;;;;;5027869;28;20542;-69
2023/09/28 03:18:47;;;;;;;1999.90;999.90;;;19.10;99.90;;;;;;5027440;28;20061;-76
2023/09/28 03:21:13;;;;;;;1999.90;999.90;;;19.10;99.90;;;;;;5027666;28;20454;-76
2023/09/28 03:23:39;;;;;;;1999.90;999.90;;;19.10;99.90;;;;;;5027850;28;20550;-76
2023/09/28 03:26:05;;;;;;;1999.90;999.90;;;19.10;99.90;;;;;;5027927;28;20056;-76
2023/09/28 03:28:31;;;;;;;1999.90;999.90;;;19.00;99.90;;;;;;5023548;28;20037;-69
2023/09/28 03:30:56;;;;;;;1999.90;999.90;;;19.00;99.90;;;;;;5007446;28;20442;-77
2023/09/28 03:33:22;;;;;;;1999.90;999.90;;;19.00;99.90;;;;;;5005485;28;20559;-76
2023/09/28 03:35:48;;;;;;;1999.90;999.90;;;19.00;99.90;;;;;;5007508;28;20041;-76
2023/09/28 03:38:13;;;;;;;1999.90;999.90;;;19.00;99.90;;;;;;5007949;28;20037;-69
2023/09/28 03:40:43;;;;;;;1999.90;999.90;;;19.00;99.90;;;;;;5007696;28;20064;-70
2023/09/28 03:43:08;;;;;;;1999.90;999.90;;;19.00;99.90;;;;;;5006001;28;20475;-69
2023/09/28 03:45:34;;;;;;;1999.90;999.90;;;19.00;99.90;;;;;;5006897;28;20120;-76
2023/09/28 03:48:00;;;;;;;1999.90;999.90;;;19.00;99.90;;;;;;5016748;28;20029;-76
2023/09/28 03:50:26;;;;;;;1999.90;999.90;;;18.90;99.90;;;;;;5027265;28;20823;-76
2023/09/28 03:52:52;;;;;;;1999.90;999.90;;;18.80;99.90;;;;;;5027021;28;20031;-69
2023/09/28 03:55:19;;;;;;;1999.90;999.90;;;18.80;99.90;;;;;;5026611;28;20555;-69
2023/09/28 03:57:46;;;;;;;1999.90;999.90;;;18.80;99.90;;;;;;5027272;28;20048;-76
2023/09/28 04:00:14;;;;;;;1999.90;999.90;;;18.70;99.90;;;;;;5026884;28;20021;-76
2023/09/28 04:02:50;;;;;;;1999.90;999.90;;;18.70;99.90;;;;;;5027154;28;20124;-76
2023/09/28 04:05:15;;;;;;;1999.90;999.90;;;18.70;99.90;;;;;;5026077;28;20064;-76
2023/09/28 04:07:41;;;;;;;1999.90;999.90;;;18.80;99.90;;;;;;5026868;28;20029;-76
2023/09/28 04:10:08;;;;;;;1999.90;999.90;;;18.70;99.90;;;;;;5026982;28;20160;-77
2023/09/28 04:12:33;;;;;;;1999.90;999.90;;;18.80;99.90;;;;;;5026419;28;20102;-76
2023/09/28 04:14:59;;;;;;;1999.90;999.90;;;18.80;99.90;;;;;;5026913;28;20455;-76
2023/09/28 04:17:25;;;;;;;1999.90;999.90;;;18.80;99.90;;;;;;5027184;28;20021;-77
2023/09/28 04:19:51;;;;;;;1999.90;999.90;;;18.80;99.90;;;;;;5026276;28;20025;-69
2023/09/28 04:22:16;;;;;;;1999.90;999.90;;;18.80;99.90;;;;;;5026658;28;20036;-69
2023/09/28 04:24:42;;;;;;;1999.90;999.90;;;18.70;99.90;;;;;;5025583;28;20080;-77
2023/09/28 04:27:08;;;;;;;1999.90;999.90;;;18.70;99.90;;;;;;5026808;28;20063;-77
2023/09/28 04:29:34;;;;;;;1999.90;999.90;;;18.70;99.90;;;;;;5013765;28;20633;-76
2023/09/28 04:32:01;;;;;;;1999.90;999.90;;;18.80;99.90;;;;;;5006981;28;20033;-69
2023/09/28 04:34:27;;;;;;;1999.90;999.90;;;18.70;99.90;;;;;;5006577;28;20030;-69
2023/09/28 04:36:52;;;;;;;1999.90;999.90;;;18.80;99.90;;;;;;5006401;28;20033;-76
2023/09/28 04:39:18;;;;;;;1999.90;999.90;;;18.70;99.90;;;;;;5006455;28;20069;-76
2023/09/28 04:41:44;;;;;;;1999.90;999.90;;;18.70;99.90;;;;;;5006345;28;20040;-76
2023/09/28 04:44:10;;;;;;;1999.90;999.90;;;18.80;99.90;;;;;;5006750;28;20594;-76
2023/09/28 04:46:36;;;;;;;1999.90;999.90;;;18.70;99.90;;;;;;5005923;28;20057;-69
2023/09/28 04:49:02;;;;;;;1999.90;999.90;;;18.70;99.90;;;;;;5023699;28;20065;-76
2023/09/28 04:51:31;;;;;;;1999.90;999.90;;;18.70;99.90;;;;;;5026435;28;20067;-77
2023/09/28 04:53:57;;;;;;;1999.90;999.90;;;18.70;99.90;;;;;;5021594;28;20483;-76
2023/09/28 04:56:22;;;;;;;1999.90;999.90;;;18.70;99.90;;;;;;5023794;28;20119;-77
2023/09/28 04:58:48;;;;;;;1999.90;999.90;;;18.70;99.90;;;;;;5025576;28;20146;-69
2023/09/28 05:01:14;;;;;;;1999.90;999.90;;;18.60;99.90;;;;;;5024277;28;20032;-69
2023/09/28 05:03:40;;;;;;;1999.90;999.90;;;18.70;99.90;;;;;;5025782;28;20029;-76
2023/09/28 05:06:05;;;;;;;1999.90;999.90;;;18.60;99.90;;;;;;5025314;28;20029;-77
2023/09/28 05:08:31;;;;;;;1999.90;999.90;;;18.60;99.90;;;;;;5025808;28;20328;-76
2023/09/28 05:10:57;;;;;;;1999.90;999.90;;;18.60;99.90;;;;;;5025907;28;20223;-69
2023/09/28 05:13:28;;;;;;;1999.90;999.90;;;18.60;99.90;;;;;;5025912;28;20302;-69
2023/09/28 05:15:54;;;;;;;1999.90;999.90;;;18.50;99.90;;;;;;5023868;28;20033;-77
2023/09/28 05:18:19;;;;;;;1999.90;999.90;;;18.50;99.90;;;;;;5025055;28;20589;-76
2023/09/28 05:20:45;;;;;;;1999.90;999.90;;;18.50;99.90;;;;;;5024296;28;20037;-76
2023/09/28 05:23:11;;;;;;;1999.90;999.90;;;18.50;99.90;;;;;;5025888;28;20422;-77
2023/09/28 05:25:37;;;;;;;1999.90;999.90;;;18.50;99.90;;;;;;5025116;28;20847;-69
2023/09/28 05:28:04;;;;;;;1999.90;999.90;;;18.50;99.90;;;;;;5025492;28;20099;-76
2023/09/28 05:30:29;;;;;;;1999.90;999.90;;;18.50;99.90;;;;;;5005777;28;20068;-76
2023/09/28 05:32:55;;;;;;;1999.90;999.90;;;18.50;99.90;;;;;;5005959;28;20751;-76
2023/09/28 05:35:22;;;;;;;1999.90;999.90;;;18.50;99.90;;;;;;5005510;28;20451;-76
2023/09/28 05:37:49;;;;;;;1999.90;999.90;;;18.60;99.90;;;;;;5007010;28;20638;-69
2023/09/28 05:40:15;;;;;;;1999.90;999.90;;;18.60;99.90;;;;;;5025777;28;20029;-70
2023/09/28 05:42:41;;;;;;;1999.90;999.90;;;18.60;99.90;;;;;;5023991;28;20199;-77
2023/09/28 05:45:07;;;;;;;1999.90;999.90;;;18.60;99.90;;;;;;5024797;28;20033;-78
2023/09/28 05:47:34;;;;;;;1999.90;999.90;;;18.70;99.90;;;;;;5024082;28;20082;-71
2023/09/28 05:50:00;;;;;;;1999.90;999.90;;;18.70;99.90;;;;;;5023325;28;20037;-72
2023/09/28 05:52:26;;;;;;;1999.90;999.90;;;18.80;99.90;;;;;;5025024;28;20743;-78
2023/09/28 05:54:53;;;;;;;1999.90;999.90;;;18.70;99.90;;;;;;5024993;28;20354;-78
2023/09/28 05:57:21;;;;;;;1999.90;999.90;;;18.70;99.90;;;;;;5024757;28;20021;-78
2023/09/28 05:59:46;;;;;;;1999.90;999.90;;;18.60;99.90;;;;;;5025270;28;20091;-78
2023/09/28 06:02:12;;;;;;;1999.90;999.90;;;18.60;99.90;;;;;;5023279;28;20039;-78
2023/09/28 06:04:38;;;;;;;1999.90;999.90;;;18.70;99.90;;;;;;5025015;28;20516;-71
2023/09/28 06:07:03;;;;;;;1999.90;999.90;;;18.60;99.90;;;;;;5024892;28;20047;-72
2023/09/28 06:09:29;;;;;;;1999.90;999.90;;;18.70;99.90;;;;;;5027833;28;20127;-79
2023/09/28 06:11:57;;;;;;;1999.90;999.90;;;18.80;99.90;;;;;;5029640;28;20032;-78
2023/09/28 06:14:23;;;;;;;1999.90;999.90;;;18.80;99.90;;;;;;5027661;28;20029;-79
2023/09/28 06:16:49;;;;;;;1999.90;999.90;;;18.80;99.90;;;;;;5028584;28;20036;-70
2023/09/28 06:19:15;;;;;;;1999.90;999.90;;;18.80;99.90;;;;;;5028895;28;20072;-72
2023/09/28 06:21:40;;;;;;;1999.90;999.90;;;18.90;99.90;;;;;;5024719;28;20465;-78
2023/09/28 06:24:06;;;;;;;1999.90;999.90;;;18.90;99.90;;;;;;5027755;28;20025;-78
2023/09/28 06:26:33;;;;;;;1999.90;999.90;;;18.90;99.90;;;;;;5027451;28;20067;-78
2023/09/28 06:28:59;;;;;;;1999.90;999.90;;;18.90;99.90;;;;;;5028276;28;20033;-71
2023/09/28 06:31:24;;;;;;;1999.90;999.90;;;19.00;99.90;;;;;;5027800;28;20102;-71
2023/09/28 06:33:50;;;;;;;1999.90;999.90;;;19.00;99.90;;;;;;5027203;28;20029;-71
2023/09/28 06:36:16;;;;;;;1999.90;999.90;;;19.00;99.90;;;;;;5023442;28;20819;-78
2023/09/28 06:38:42;;;;;;;1999.90;999.90;;;19.00;99.90;;;;;;5024459;28;20049;-71
2023/09/28 06:41:08;;;;;;;1999.90;999.90;;;19.00;99.90;;;;;;5027884;28;20033;-78
2023/09/28 06:43:35;;;;;;;1999.90;999.90;;;18.90;99.90;;;;;;5027972;28;20036;-72
2023/09/28 06:46:03;;;;;;;1999.90;999.90;;;19.00;99.90;;;;;;5026244;28;20021;-78
2023/09/28 06:48:29;;;;;;;1999.90;999.90;;;19.00;99.90;;;;;;5028028;28;20817;-76
2023/09/28 06:50:58;;;;;;;1999.90;999.90;;;19.10;99.90;;;;;;5026245;28;20068;-77
2023/09/28 06:53:24;;;;;;;1999.90;999.90;;;19.10;99.90;;;;;;5027278;28;20037;-71
2023/09/28 06:55:50;;;;;;;1999.90;999.90;;;19.20;99.90;;;;;;5023950;28;20025;-73
2023/09/28 06:58:17;;;;;;;1999.90;999.90;;;19.20;99.90;;;;;;5025526;28;20040;-80
2023/09/28 07:00:44;;;;;;;1999.90;999.90;;;19.20;99.90;;;;;;5026578;28;20446;-80
2023/09/28 07:03:09;;;;;;;1999.90;999.90;;;19.20;99.90;;;;;;5023948;28;20345;-80
2023/09/28 07:05:36;;;;;;;1999.90;999.90;;;19.30;99.90;;;;;;5025684;28;20032;-73
2023/09/28 07:08:05;;;;;;;1999.90;999.90;;;19.40;99.90;;;;;;5024316;28;20048;-74
2023/09/28 07:10:34;;;;;;;1999.90;999.90;;;19.40;99.90;;;;;;5024517;28;20029;-73
2023/09/28 07:13:02;;;;;;;1999.90;999.90;;;19.50;99.90;;;;;;5021625;28;20028;-80
2023/09/28 07:15:31;;;;;;;1999.90;999.90;;;19.50;99.90;;;;;;5026680;28;20290;-74
2023/09/28 07:17:57;;;;;;;1999.90;999.90;;;19.50;99.90;;;;;;5025240;28;20037;-79
2023/09/28 07:20:25;;;;;;;1999.90;999.90;;;19.70;99.90;;;;;;5026219;28;20041;-78
2023/09/28 07:22:51;;;;;;;1999.90;999.90;;;19.80;99.90;;;;;;5026178;28;20420;-80
2023/09/28 07:25:17;;;;;;;1999.90;999.90;;;20.00;99.90;;;;;;5026465;28;20056;-80
2023/09/28 07:27:44;;;;;;;1999.90;999.90;;;20.00;99.90;;;;;;5025843;28;20041;-80
2023/09/28 07:30:11;;;;;;;1999.90;999.90;;;20.10;99.90;;;;;;5023254;28;20754;-73
2023/09/28 07:32:38;;;;;;;1999.90;999.90;;;20.20;99.90;;;;;;5027781;28;20025;-81
2023/09/28 07:35:04;;;;;;;1999.90;999.90;;;20.20;99.90;;;;;;5023033;28;20119;-74
2023/09/28 07:37:30;;;;;;;1999.90;999.90;;;20.30;99.90;;;;;;5023006;28;20039;-81
2023/09/28 07:39:56;;;;;;;1999.90;999.90;;;20.30;99.90;;;;;;5024195;28;20061;-74
2023/09/28 07:42:23;;;;;;;1999.90;999.90;;;20.50;99.90;;;;;;5022140;28;20036;-82
2023/09/28 07:44:51;;;;;;;1999.90;999.90;;;20.50;99.90;;;;;;5024252;28;20383;-80
2023/09/28 07:47:18;;;;;;;1999.90;999.90;;;20.60;99.90;;;;;;5024780;28;20032;-74
2023/09/28 07:49:45;;;;;;;1999.90;999.90;;;20.50;99.90;;;;;;5024497;28;20060;-74
2023/09/28 07:52:11;;;;;;;1999.90;999.90;;;20.50;99.90;;;;;;5025296;28;20036;-74
2023/09/28 07:54:37;;;;;;;1999.90;999.90;;;20.50;99.90;;;;;;5020734;28;20031;-80
2023/09/28 07:57:04;;;;;;;1999.90;999.90;;;20.50;99.90;;;;;;5021078;28;20144;-80
2023/09/28 07:59:33;;;;;;;1999.90;999.90;;;20.50;99.90;;;;;;5017215;28;20488;-80
2023/09/28 08:01:59;;;;;;;1999.90;999.90;;;20.40;99.90;;;;;;5015794;28;20040;-74
2023/09/28 08:04:25;;;;;;;1999.90;999.90;;;20.40;99.90;;;;;;5023271;28;20056;-80
2023/09/28 08:06:51;;;;;;;1999.90;999.90;;;20.30;99.90;;;;;;5016987;28;20486;-80
2023/09/28 08:09:19;;;;;;;1999.90;999.90;;;20.30;99.90;;;;;;5013706;28;20415;-75
2023/09/28 08:11:50;;;;;;;1999.90;999.90;;;20.60;99.90;;;;;;5017847;28;20040;-80
2023/09/28 08:14:17;;;;;;;1999.90;999.90;;;21.40;99.90;;;;;;5023320;28;20059;-75
2023/09/28 08:16:44;;;;;;;1999.90;999.90;;;22.00;99.90;;;;;;5023878;28;20040;-75
2023/09/28 08:19:09;;;;;;;1999.90;999.90;;;22.40;99.90;;;;;;5024674;28;20145;-81
2023/09/28 08:21:37;;;;;;;1999.90;999.90;;;23.30;99.90;;;;;;5024048;28;20045;-80
2023/09/28 08:24:03;;;;;;;1999.90;999.90;;;23.60;99.90;;;;;;5022406;28;20025;-80
2023/09/28 08:26:30;;;;;;;1999.90;999.90;;;23.20;99.90;;;;;;5023560;28;20578;-74
2023/09/28 08:28:57;;;;;;;1999.90;999.90;;;23.00;99.90;;;;;;5018127;28;20694;-74
2023/09/28 08:31:23;;;;;;;1999.90;999.90;;;23.10;99.90;;;;;;5016504;28;20036;-80
2023/09/28 08:33:49;;;;;;;1999.90;999.90;;;23.90;99.90;;;;;;5023372;28;20689;-80
2023/09/28 08:36:15;;;;;;;1999.90;999.90;;;24.60;99.90;;;;;;5016869;28;20155;-80
2023/09/28 08:38:40;;;;;;;1999.90;999.90;;;24.50;99.90;;;;;;5022656;28;20975;-78
2023/09/28 08:41:09;;;;;;;1999.90;999.90;;;24.60;99.90;;;;;;5023415;28;20120;-79
2023/09/28 08:43:53;;;;;;;1999.90;999.90;;;25.60;99.90;;;;;;5023151;28;20036;-79
2023/09/28 08:46:22;;;;;;;1999.90;999.90;;;27.00;99.90;;;;;;5020446;28;20451;-78
2023/09/28 08:48:50;;;;;;;1999.90;999.90;;;27.90;99.90;;;;;;5023372;28;20029;-72
2023/09/28 08:51:16;;;;;;;1999.90;999.90;;;28.60;99.90;;;;;;5019040;28;20529;-79
2023/09/28 08:53:43;;;;;;;1999.90;999.90;;;29.40;99.90;;;;;;5023557;28;20067;-73
2023/09/28 08:56:09;;;;;;;1999.90;999.90;;;29.40;99.90;;;;;;5023950;28;21026;-73
2023/09/28 08:58:36;;;;;;;1999.90;999.90;;;29.30;99.90;;;;;;5020726;28;20040;-79
2023/09/28 09:01:03;;;;;;;1999.90;999.90;;;29.70;99.90;;;;;;5020427;28;20117;-79
2023/09/28 09:03:31;;;;;;;1999.90;999.90;;;29.60;99.90;;;;;;5020762;28;20056;-79
2023/09/28 09:05:57;;;;;;;1999.90;999.90;;;29.90;99.90;;;;;;5024527;28;20033;-80
2023/09/28 09:08:25;;;;;;;1999.90;999.90;;;30.20;99.90;;;;;;5023281;28;20029;-73
2023/09/28 09:10:51;;;;;;;1999.90;999.90;;;29.80;99.90;;;;;;5026154;28;20139;-79
2023/09/28 09:13:21;;;;;;;1999.90;999.90;;;30.30;99.90;;;;;;5024662;28;20029;-79
2023/09/28 09:15:47;;;;;;;1999.90;999.90;;;29.30;99.90;;;;;;5020747;28;20033;-79
2023/09/28 09:18:19;;;;;;;1999.90;999.90;;;27.50;99.90;;;;;;5024401;28;20064;-72
2023/09/28 09:20:46;;;;;;;;;;;25.50;99.90;;;;;;5025462;28;20028;-73
2023/09/28 09:23:13;;;;;;;1999.90;999.90;;;24.60;99.90;;;;;;5024189;28;19950;-79
2023/09/28 09:25:47;;;;;;;1999.90;999.90;;;24.20;99.90;;;;;;5023170;28;20118;-78
2023/09/28 09:28:26;;;;;;;1999.90;999.90;;;23.60;99.90;;;;;;5022771;28;20035;-73
2023/09/28 09:30:52;;;;;;;1999.90;999.90;;;23.40;99.90;;;;;;5022179;28;20562;-72
2023/09/28 09:33:18;;;;;;;1999.90;999.90;;;23.20;99.90;;;;;;5024502;28;20033;-72
2023/09/28 09:35:44;;;;;;;1999.90;999.90;;;23.50;99.90;;;;;;5023657;28;20830;-73
2023/09/28 09:38:09;;;;;;;1999.90;999.90;;;23.70;99.90;;;;;;5022371;28;20782;-72
2023/09/28 09:40:35;;;;;;;1999.90;999.90;;;23.80;99.90;;;;;;5024817;28;20060;-79
2023/09/28 09:43:08;;;;;;;1999.90;999.90;;;24.20;99.90;;;;;;5026271;28;20054;-72
2023/09/28 09:45:40;;;;;;;1999.90;999.90;;;24.30;99.90;;;;;;5026851;28;20036;-72
2023/09/28 09:48:06;;;;;;;1999.90;999.90;;;23.90;99.90;;;;;;5028055;28;20021;-78
2023/09/28 09:50:35;;;;;;;1999.90;999.90;;;23.70;99.90;;;;;;5027887;28;20154;-73
2023/09/28 09:53:04;;;;;;;1999.90;999.90;;;23.50;99.90;;;;;;5028664;28;20546;-72
2023/09/28 09:55:31;;;;;;;1999.90;999.90;;;23.50;99.90;;;;;;5028631;28;20029;-78
2023/09/28 09:58:03;;;;;;;1999.90;999.90;;;23.60;99.90;;;;;;5025750;28;20064;-72
2023/09/28 10:00:35;;;;;;;1999.90;999.90;;;23.50;99.90;;;;;;5027258;28;20689;-73
2023/09/28 10:03:03;;;;;;;1999.90;999.90;;;23.50;99.90;;;;;;5027795;28;20033;-78
2023/09/28 10:05:29;;;;;;;1999.90;999.90;;;23.60;99.90;;;;;;5025852;28;20028;-72
2023/09/28 10:07:57;;;;;;;1999.90;999.90;;;23.50;99.90;;;;;;5028224;28;20029;-78
2023/09/28 10:10:23;;;;;;;1999.90;999.90;;;23.80;99.90;;;;;;5026894;28;20009;-72
2023/09/28 10:12:50;;;;;;;1999.90;999.90;;;23.90;99.90;;;;;;5025625;28;20033;-73
2023/09/28 10:15:16;;;;;;;1999.90;999.90;;;24.30;99.90;;;;;;5028170;28;20940;-77
2023/09/28 10:17:44;;;;;;;1999.90;999.90;;;24.30;99.90;;;;;;5013836;28;20025;-79
2023/09/28 10:20:13;;;;;;;1999.90;999.90;;;24.00;99.90;;;;;;5016026;28;20021;-79
2023/09/28 10:22:43;;;;;;;1999.90;999.90;;;24.10;99.90;;;;;;5024334;28;20137;-79
2023/09/28 10:25:12;;;;;;;1999.90;999.90;;;23.90;99.90;;;;;;5026235;28;20148;-73
2023/09/28 10:27:39;;;;;;;1999.90;999.90;;;24.10;99.90;;;;;;5022343;28;20028;-78
2023/09/28 10:30:23;;;;;;;1999.90;999.90;;;24.10;99.90;;;;;;5021373;28;20029;-78
2023/09/28 10:32:54;;;;;;;1999.90;999.90;;;24.30;99.90;;;;;;5019830;28;20539;-78
2023/09/28 10:35:20;;;;;;;1999.90;999.90;;;24.70;99.90;;;;;;5020646;28;20033;-78
2023/09/28 10:38:24;;;;;;;1999.90;999.90;;;24.60;99.90;;;;;;5025164;28;20522;-72
2023/09/28 10:41:05;;;;;;;1999.90;999.90;;;24.10;99.90;;;;;;4960874;28;20132;-78
2023/09/28 10:43:40;;;;;;;1999.90;999.90;;;24.50;99.90;;;;;;4959404;28;20026;-78
2023/09/28 10:46:07;;;;;;;1999.90;999.90;;;24.40;99.90;;;;;;4961675;28;20034;-79
2023/09/28 10:48:44;;;;;;;1999.90;999.90;;;24.60;99.90;;;;;;4961999;28;20473;-78
2023/09/28 10:51:11;;;;;;;1999.90;999.90;;;24.70;99.90;;;;;;4963383;28;20060;-73
2023/09/28 10:53:37;;;;;;;1999.90;999.90;;;24.80;99.90;;;;;;4959878;28;20038;-78
2023/09/28 10:56:05;;;;;;;1999.90;999.90;;;24.70;99.90;;;;;;4962242;28;20185;-79
2023/09/28 10:58:32;;;;;;;1999.90;999.90;;;24.80;99.90;;;;;;4959921;28;20201;-79
2023/09/28 11:01:04;;;;;;;1999.90;999.90;;;24.70;99.90;;;;;;4968510;28;20630;-79
2023/09/28 11:03:31;;;;;;;1999.90;999.90;;;25.00;99.90;;;;;;4948472;28;20030;-73
2023/09/28 11:05:58;;;;;;;1999.90;999.90;;;25.20;99.90;;;;;;4959357;28;20035;-79
2023/09/28 11:08:25;;;;;;;1999.90;999.90;;;25.30;99.90;;;;;;4960596;28;20026;-78
2023/09/28 11:10:50;;;;;;;1999.90;999.90;;;25.20;99.90;;;;;;4964822;28;20126;-78
2023/09/28 11:13:16;;;;;;;1999.90;999.90;;;25.40;99.90;;;;;;5015217;28;20120;-78
2023/09/28 11:15:42;;;;;;;1999.90;999.90;;;25.40;99.90;;;;;;5024972;28;20039;-72
2023/09/28 11:18:07;;;;;;;1999.90;999.90;;;25.60;99.90;;;;;;5020786;28;20033;-72
2023/09/28 11:20:33;;;;;;;1999.90;999.90;;;25.30;99.90;;;;;;5021979;28;20080;-78
2023/09/28 11:22:59;;;;;;;1999.90;999.90;;;25.40;99.90;;;;;;5021971;28;20029;-78
2023/09/28 11:25:26;;;;;;;1999.90;999.90;;;25.40;99.90;;;;;;5016988;28;20463;-79
2023/09/28 11:27:52;;;;;;;1999.90;999.90;;;25.40;99.90;;;;;;5017211;28;20327;-73
2023/09/28 11:30:19;;;;;;;1999.90;999.90;;;25.50;99.90;;;;;;5014847;28;20542;-73
2023/09/28 11:32:50;;;;;;;1999.90;999.90;;;25.50;99.90;;;;;;5021758;28;20033;-73
2023/09/28 11:35:16;;;;;;;1999.90;999.90;;;25.10;99.90;;;;;;5014192;28;20029;-79
2023/09/28 11:37:42;;;;;;;1999.90;999.90;;;25.20;99.90;;;;;;5014986;28;20080;-79
2023/09/28 11:40:09;;;;;;;1999.90;999.90;;;25.60;99.90;;;;;;5012703;28;20544;-79
2023/09/28 11:42:38;;;;;;;1999.90;999.90;;;25.70;99.90;;;;;;5021538;28;20032;-73
2023/09/28 11:45:04;;;;;;;1999.90;999.90;;;25.60;99.90;;;;;;5023604;28;20111;-78
2023/09/28 11:47:30;;;;;;;1999.90;999.90;;;25.40;99.90;;;;;;5025338;28;20025;-79
2023/09/28 11:49:56;;;;;;;1999.90;999.90;;;25.20;99.90;;;;;;5024686;28;20072;-78
2023/09/28 11:52:21;;;;;;;1999.90;999.90;;;25.40;99.90;;;;;;5017728;28;20589;-79
2023/09/28 11:54:47;;;;;;;1999.90;999.90;;;25.50;99.90;;;;;;5016175;28;20114;-73
2023/09/28 11:57:16;;;;;;;1999.90;999.90;;;25.40;99.90;;;;;;5023474;28;20171;-73
2023/09/28 11:59:42;;;;;;;1999.90;999.90;;;25.40;99.90;;;;;;5016173;28;20420;-80